Winfield, Pennsylvania
Current Conditions -  °F | °C
As of 4:53 AM on Saturday 22 Nov 2014 (Local Time) from KSEG Reporting Station
Clear Clear  
Wind Chill: 14°   Ceiling: Unl
Heat Index: 14°   Visibility: 8mi
Dew Point: 10°   Wind: 3mph
Humidity: 84%   Direction: 300°WNW
Pressure: 30.48"   Gusts: NA
Location:  40.91°N, 76.86°W
Report Text: KSEG 220953Z AUTO 30003KT 8SM CLR M10/M12 A3048 RMK AO2 SLP327 T11001122
Loading
Personal Weather Stations






























Interactive Weather Map New forecast layout! Learn more

10-Day Weather Forecast

Advertisements
Track Severe Weather on mobile